sensor_id;sensor_type;location;lat;lon;timestamp;P1;durP1;ratioP1;P2;durP2;ratioP2
1024;SDS011;501;48.214;11.350;2022-07-05T00:01:05;4.70;;;2.33;;
1024;SDS011;501;48.214;11.350;2022-07-05T00:03:31;1.90;;;1.80;;
1024;SDS011;501;48.214;11.350;2022-07-05T00:05:57;3.23;;;2.40;;
1024;SDS011;501;48.214;11.350;2022-07-05T00:08:23;3.20;;;2.47;;
1024;SDS011;501;48.214;11.350;2022-07-05T00:10:49;3.63;;;2.40;;
1024;SDS011;501;48.214;11.350;2022-07-05T00:13:14;5.20;;;2.53;;
1024;SDS011;501;48.214;11.350;2022-07-05T00:15:40;3.70;;;2.23;;
1024;SDS011;501;48.214;11.350;2022-07-05T00:18:06;2.97;;;2.60;;
1024;SDS011;501;48.214;11.350;2022-07-05T00:20:32;5.23;;;2.57;;
1024;SDS011;501;48.214;11.350;2022-07-05T00:22:58;2.80;;;2.60;;
1024;SDS011;501;48.214;11.350;2022-07-05T00:25:23;5.27;;;2.90;;
1024;SDS011;501;48.214;11.350;2022-07-05T00:27:49;3.87;;;3.30;;
1024;SDS011;501;48.214;11.350;2022-07-05T00:30:15;3.03;;;2.83;;
1024;SDS011;501;48.214;11.350;2022-07-05T00:32:41;4.20;;;3.00;;
1024;SDS011;501;48.214;11.350;2022-07-05T00:35:07;3.57;;;2.60;;
1024;SDS011;501;48.214;11.350;2022-07-05T00:37:33;2.83;;;2.60;;
1024;SDS011;501;48.214;11.350;2022-07-05T00:39:59;2.67;;;2.43;;
1024;SDS011;501;48.214;11.350;2022-07-05T00:42:25;4.10;;;2.87;;
1024;SDS011;501;48.214;11.350;2022-07-05T00:44:51;2.90;;;2.50;;
1024;SDS011;501;48.214;11.350;2022-07-05T00:47:17;3.90;;;2.33;;
1024;SDS011;501;48.214;11.350;2022-07-05T00:49:43;2.73;;;2.53;;
1024;SDS011;501;48.214;11.350;2022-07-05T00:52:09;2.33;;;2.13;;
1024;SDS011;501;48.214;11.350;2022-07-05T00:54:36;4.70;;;2.47;;
1024;SDS011;501;48.214;11.350;2022-07-05T00:57:03;3.47;;;2.33;;
1024;SDS011;501;48.214;11.350;2022-07-05T00:59:30;3.43;;;2.93;;
1024;SDS011;501;48.214;11.350;2022-07-05T01:01:56;2.33;;;2.23;;
1024;SDS011;501;48.214;11.350;2022-07-05T01:04:23;2.47;;;2.27;;
1024;SDS011;501;48.214;11.350;2022-07-05T01:06:51;3.50;;;2.60;;
1024;SDS011;501;48.214;11.350;2022-07-05T01:09:18;2.40;;;2.20;;
1024;SDS011;501;48.214;11.350;2022-07-05T01:11:46;2.77;;;2.57;;
1024;SDS011;501;48.214;11.350;2022-07-05T01:14:12;2.60;;;2.20;;
1024;SDS011;501;48.214;11.350;2022-07-05T01:16:40;2.97;;;2.10;;
1024;SDS011;501;48.214;11.350;2022-07-05T01:19:07;3.27;;;2.40;;
1024;SDS011;501;48.214;11.350;2022-07-05T01:21:37;4.97;;;2.37;;
1024;SDS011;501;48.214;11.350;2022-07-05T01:24:05;2.50;;;2.23;;
1024;SDS011;501;48.214;11.350;2022-07-05T01:26:32;2.50;;;2.20;;
1024;SDS011;501;48.214;11.350;2022-07-05T01:28:58;2.83;;;2.50;;
1024;SDS011;501;48.214;11.350;2022-07-05T01:31:23;2.33;;;2.13;;
1024;SDS011;501;48.214;11.350;2022-07-05T01:33:49;2.37;;;2.17;;
1024;SDS011;501;48.214;11.350;2022-07-05T01:36:15;10.53;;;2.50;;
1024;SDS011;501;48.214;11.350;2022-07-05T01:38:41;3.40;;;2.27;;
1024;SDS011;501;48.214;11.350;2022-07-05T01:41:08;2.50;;;2.30;;
1024;SDS011;501;48.214;11.350;2022-07-05T01:43:34;6.23;;;2.70;;
1024;SDS011;501;48.214;11.350;2022-07-05T01:46:00;2.37;;;2.07;;
1024;SDS011;501;48.214;11.350;2022-07-05T01:48:29;2.93;;;2.20;;
1024;SDS011;501;48.214;11.350;2022-07-05T01:51:00;2.90;;;2.63;;
1024;SDS011;501;48.214;11.350;2022-07-05T01:53:31;3.50;;;2.40;;
1024;SDS011;501;48.214;11.350;2022-07-05T01:55:58;3.10;;;2.63;;
1024;SDS011;501;48.214;11.350;2022-07-05T01:58:25;3.43;;;2.90;;
1024;SDS011;501;48.214;11.350;2022-07-05T02:00:52;6.43;;;2.47;;
1024;SDS011;501;48.214;11.350;2022-07-05T02:03:19;4.20;;;2.67;;
1024;SDS011;501;48.214;11.350;2022-07-05T02:05:45;3.30;;;2.50;;
1024;SDS011;501;48.214;11.350;2022-07-05T02:08:11;4.23;;;2.40;;
1024;SDS011;501;48.214;11.350;2022-07-05T02:10:40;6.23;;;2.80;;
1024;SDS011;501;48.214;11.350;2022-07-05T02:13:06;5.33;;;2.33;;
1024;SDS011;501;48.214;11.350;2022-07-05T02:15:33;2.37;;;2.17;;
1024;SDS011;501;48.214;11.350;2022-07-05T02:18:00;2.67;;;2.30;;
1024;SDS011;501;48.214;11.350;2022-07-05T02:20:27;3.30;;;2.57;;
1024;SDS011;501;48.214;11.350;2022-07-05T02:22:53;4.50;;;2.37;;
1024;SDS011;501;48.214;11.350;2022-07-05T02:25:19;3.53;;;2.53;;
1024;SDS011;501;48.214;11.350;2022-07-05T02:27:45;3.30;;;2.60;;
1024;SDS011;501;48.214;11.350;2022-07-05T02:30:12;5.00;;;2.27;;
1024;SDS011;501;48.214;11.350;2022-07-05T02:32:37;2.20;;;2.00;;
1024;SDS011;501;48.214;11.350;2022-07-05T02:35:03;5.90;;;2.07;;
1024;SDS011;501;48.214;11.350;2022-07-05T02:37:30;2.47;;;2.27;;
1024;SDS011;501;48.214;11.350;2022-07-05T02:39:55;4.70;;;2.77;;
1024;SDS011;501;48.214;11.350;2022-07-05T02:42:21;2.10;;;2.00;;
1024;SDS011;501;48.214;11.350;2022-07-05T02:44:47;3.00;;;2.37;;
1024;SDS011;501;48.214;11.350;2022-07-05T02:47:12;3.93;;;3.20;;
1024;SDS011;501;48.214;11.350;2022-07-05T02:49:38;4.10;;;2.83;;
1024;SDS011;501;48.214;11.350;2022-07-05T02:52:04;4.67;;;2.80;;
1024;SDS011;501;48.214;11.350;2022-07-05T02:54:29;3.57;;;2.60;;
1024;SDS011;501;48.214;11.350;2022-07-05T02:56:55;2.90;;;2.70;;
1024;SDS011;501;48.214;11.350;2022-07-05T02:59:21;3.27;;;2.40;;
1024;SDS011;501;48.214;11.350;2022-07-05T03:01:46;4.43;;;2.80;;
1024;SDS011;501;48.214;11.350;2022-07-05T03:04:12;2.60;;;2.17;;
1024;SDS011;501;48.214;11.350;2022-07-05T03:06:38;4.13;;;2.70;;
1024;SDS011;501;48.214;11.350;2022-07-05T03:09:04;4.60;;;3.00;;
1024;SDS011;501;48.214;11.350;2022-07-05T03:11:29;2.97;;;2.70;;
1024;SDS011;501;48.214;11.350;2022-07-05T03:13:55;5.50;;;2.93;;
1024;SDS011;501;48.214;11.350;2022-07-05T03:16:21;3.77;;;3.00;;
1024;SDS011;501;48.214;11.350;2022-07-05T03:18:49;3.33;;;2.83;;
1024;SDS011;501;48.214;11.350;2022-07-05T03:21:17;3.47;;;2.77;;
1024;SDS011;501;48.214;11.350;2022-07-05T03:23:43;3.50;;;3.30;;
1024;SDS011;501;48.214;11.350;2022-07-05T03:26:08;4.60;;;3.10;;
1024;SDS011;501;48.214;11.350;2022-07-05T03:28:34;3.23;;;2.73;;
1024;SDS011;501;48.214;11.350;2022-07-05T03:31:00;4.60;;;2.87;;
1024;SDS011;501;48.214;11.350;2022-07-05T03:33:26;3.77;;;2.83;;
1024;SDS011;501;48.214;11.350;2022-07-05T03:35:51;9.13;;;3.10;;
1024;SDS011;501;48.214;11.350;2022-07-05T03:38:17;3.77;;;2.60;;
1024;SDS011;501;48.214;11.350;2022-07-05T03:40:43;3.57;;;3.27;;
1024;SDS011;501;48.214;11.350;2022-07-05T03:43:08;5.73;;;3.17;;
1024;SDS011;501;48.214;11.350;2022-07-05T03:45:34;3.73;;;3.23;;
1024;SDS011;501;48.214;11.350;2022-07-05T03:48:00;5.10;;;3.23;;
1024;SDS011;501;48.214;11.350;2022-07-05T03:50:26;3.60;;;3.30;;
1024;SDS011;501;48.214;11.350;2022-07-05T03:52:52;3.07;;;2.87;;
1024;SDS011;501;48.214;11.350;2022-07-05T03:55:18;6.70;;;2.97;;
1024;SDS011;501;48.214;11.350;2022-07-05T03:57:44;4.07;;;3.20;;
1024;SDS011;501;48.214;11.350;2022-07-05T04:00:13;4.03;;;3.60;;
1024;SDS011;501;48.214;11.350;2022-07-05T04:02:40;5.60;;;4.07;;
1024;SDS011;501;48.214;11.350;2022-07-05T04:05:06;5.20;;;3.77;;
1024;SDS011;501;48.214;11.350;2022-07-05T04:07:32;5.80;;;4.10;;
1024;SDS011;501;48.214;11.350;2022-07-05T04:09:58;8.60;;;4.13;;
1024;SDS011;501;48.214;11.350;2022-07-05T04:12:27;5.23;;;4.10;;
1024;SDS011;501;48.214;11.350;2022-07-05T04:14:52;4.17;;;3.87;;
1024;SDS011;501;48.214;11.350;2022-07-05T04:17:18;4.80;;;4.40;;
1024;SDS011;501;48.214;11.350;2022-07-05T04:19:44;4.73;;;4.33;;
1024;SDS011;501;48.214;11.350;2022-07-05T04:22:09;5.03;;;3.10;;
1024;SDS011;501;48.214;11.350;2022-07-05T04:24:35;6.00;;;3.00;;
1024;SDS011;501;48.214;11.350;2022-07-05T04:27:21;4.97;;;3.77;;
1024;SDS011;501;48.214;11.350;2022-07-05T04:29:46;5.77;;;3.67;;
1024;SDS011;501;48.214;11.350;2022-07-05T04:32:12;5.33;;;3.37;;
1024;SDS011;501;48.214;11.350;2022-07-05T04:34:38;3.77;;;3.37;;
1024;SDS011;501;48.214;11.350;2022-07-05T04:37:03;4.63;;;3.23;;
1024;SDS011;501;48.214;11.350;2022-07-05T04:39:29;3.90;;;3.50;;
1024;SDS011;501;48.214;11.350;2022-07-05T04:41:54;5.30;;;3.13;;
1024;SDS011;501;48.214;11.350;2022-07-05T04:44:20;3.53;;;3.20;;
1024;SDS011;501;48.214;11.350;2022-07-05T04:46:46;4.37;;;3.50;;
1024;SDS011;501;48.214;11.350;2022-07-05T04:49:11;7.83;;;3.57;;
1024;SDS011;501;48.214;11.350;2022-07-05T04:51:37;4.00;;;3.60;;
1024;SDS011;501;48.214;11.350;2022-07-05T04:54:02;3.77;;;3.40;;
1024;SDS011;501;48.214;11.350;2022-07-05T04:56:28;5.67;;;3.77;;
1024;SDS011;501;48.214;11.350;2022-07-05T04:58:54;4.17;;;3.73;;
1024;SDS011;501;48.214;11.350;2022-07-05T05:01:19;4.90;;;3.30;;
1024;SDS011;501;48.214;11.350;2022-07-05T05:03:45;3.23;;;2.87;;
1024;SDS011;501;48.214;11.350;2022-07-05T05:06:11;7.17;;;4.30;;
1024;SDS011;501;48.214;11.350;2022-07-05T05:08:38;5.00;;;4.50;;
1024;SDS011;501;48.214;11.350;2022-07-05T05:11:04;5.20;;;4.70;;
1024;SDS011;501;48.214;11.350;2022-07-05T05:13:30;10.53;;;4.77;;
1024;SDS011;501;48.214;11.350;2022-07-05T05:15:56;5.07;;;4.57;;
1024;SDS011;501;48.214;11.350;2022-07-05T05:18:21;6.77;;;4.27;;
1024;SDS011;501;48.214;11.350;2022-07-05T05:20:51;6.10;;;4.63;;
1024;SDS011;501;48.214;11.350;2022-07-05T05:23:21;8.73;;;4.70;;
1024;SDS011;501;48.214;11.350;2022-07-05T05:25:47;5.83;;;4.50;;
1024;SDS011;501;48.214;11.350;2022-07-05T05:28:13;6.23;;;4.23;;
1024;SDS011;501;48.214;11.350;2022-07-05T05:30:39;9.20;;;5.30;;
1024;SDS011;501;48.214;11.350;2022-07-05T05:33:04;5.60;;;5.10;;
1024;SDS011;501;48.214;11.350;2022-07-05T05:35:30;7.30;;;5.00;;
1024;SDS011;501;48.214;11.350;2022-07-05T05:37:56;6.10;;;4.80;;
1024;SDS011;501;48.214;11.350;2022-07-05T05:40:22;6.97;;;5.40;;
1024;SDS011;501;48.214;11.350;2022-07-05T05:42:49;7.13;;;5.40;;
1024;SDS011;501;48.214;11.350;2022-07-05T05:45:16;6.20;;;5.57;;
1024;SDS011;501;48.214;11.350;2022-07-05T05:47:48;6.20;;;5.60;;
1024;SDS011;501;48.214;11.350;2022-07-05T05:50:19;6.70;;;5.90;;
1024;SDS011;501;48.214;11.350;2022-07-05T05:52:45;9.30;;;5.57;;
1024;SDS011;501;48.214;11.350;2022-07-05T05:55:10;13.13;;;6.87;;
1024;SDS011;501;48.214;11.350;2022-07-05T05:57:36;7.27;;;5.67;;
1024;SDS011;501;48.214;11.350;2022-07-05T06:00:04;8.10;;;6.67;;
1024;SDS011;501;48.214;11.350;2022-07-05T06:02:30;7.60;;;6.10;;
1024;SDS011;501;48.214;11.350;2022-07-05T06:04:56;8.47;;;6.03;;
1024;SDS011;501;48.214;11.350;2022-07-05T06:07:21;6.43;;;5.60;;
1024;SDS011;501;48.214;11.350;2022-07-05T06:09:47;6.90;;;6.20;;
1024;SDS011;501;48.214;11.350;2022-07-05T06:12:13;6.30;;;5.77;;
1024;SDS011;501;48.214;11.350;2022-07-05T06:14:39;9.00;;;6.00;;
1024;SDS011;501;48.214;11.350;2022-07-05T06:17:04;9.00;;;6.73;;
1024;SDS011;501;48.214;11.350;2022-07-05T06:19:30;8.77;;;6.27;;
1024;SDS011;501;48.214;11.350;2022-07-05T06:21:55;7.37;;;6.03;;
1024;SDS011;501;48.214;11.350;2022-07-05T06:24:21;6.70;;;5.90;;
1024;SDS011;501;48.214;11.350;2022-07-05T06:26:47;9.83;;;6.03;;
1024;SDS011;501;48.214;11.350;2022-07-05T06:29:12;6.77;;;6.03;;
1024;SDS011;501;48.214;11.350;2022-07-05T06:31:38;7.63;;;5.20;;
1024;SDS011;501;48.214;11.350;2022-07-05T06:34:03;6.67;;;5.37;;
1024;SDS011;501;48.214;11.350;2022-07-05T06:36:29;7.77;;;6.13;;
1024;SDS011;501;48.214;11.350;2022-07-05T06:38:55;10.47;;;6.50;;
1024;SDS011;501;48.214;11.350;2022-07-05T06:41:20;5.50;;;4.97;;
1024;SDS011;501;48.214;11.350;2022-07-05T06:43:46;6.20;;;5.70;;
1024;SDS011;501;48.214;11.350;2022-07-05T06:46:11;5.67;;;5.17;;
1024;SDS011;501;48.214;11.350;2022-07-05T06:48:37;5.43;;;4.70;;
1024;SDS011;501;48.214;11.350;2022-07-05T06:51:03;5.90;;;5.23;;
1024;SDS011;501;48.214;11.350;2022-07-05T06:53:28;6.20;;;5.33;;
1024;SDS011;501;48.214;11.350;2022-07-05T06:55:54;6.20;;;4.40;;
1024;SDS011;501;48.214;11.350;2022-07-05T06:58:20;6.43;;;5.20;;
1024;SDS011;501;48.214;11.350;2022-07-05T07:00:45;5.50;;;4.43;;
1024;SDS011;501;48.214;11.350;2022-07-05T07:03:11;6.00;;;5.40;;
1024;SDS011;501;48.214;11.350;2022-07-05T07:05:37;4.90;;;4.13;;
1024;SDS011;501;48.214;11.350;2022-07-05T07:08:02;4.37;;;3.97;;
1024;SDS011;501;48.214;11.350;2022-07-05T07:10:47;4.30;;;4.00;;
1024;SDS011;501;48.214;11.350;2022-07-05T07:13:12;4.80;;;4.37;;
1024;SDS011;501;48.214;11.350;2022-07-05T07:15:38;4.77;;;4.37;;
1024;SDS011;501;48.214;11.350;2022-07-05T07:18:05;5.70;;;3.70;;
1024;SDS011;501;48.214;11.350;2022-07-05T07:20:31;4.10;;;3.80;;
1024;SDS011;501;48.214;11.350;2022-07-05T07:22:57;4.70;;;4.27;;
1024;SDS011;501;48.214;11.350;2022-07-05T07:25:23;4.47;;;4.07;;
1024;SDS011;501;48.214;11.350;2022-07-05T07:27:52;3.60;;;3.30;;
1024;SDS011;501;48.214;11.350;2022-07-05T07:30:20;6.20;;;3.40;;
1024;SDS011;501;48.214;11.350;2022-07-05T07:32:47;4.57;;;4.00;;
1024;SDS011;501;48.214;11.350;2022-07-05T07:35:14;3.90;;;3.27;;
1024;SDS011;501;48.214;11.350;2022-07-05T07:37:39;5.00;;;3.73;;
1024;SDS011;501;48.214;11.350;2022-07-05T07:40:05;7.40;;;3.70;;
1024;SDS011;501;48.214;11.350;2022-07-05T07:42:32;6.97;;;3.40;;
1024;SDS011;501;48.214;11.350;2022-07-05T07:44:58;4.77;;;3.50;;
1024;SDS011;501;48.214;11.350;2022-07-05T07:47:28;2.90;;;2.33;;
1024;SDS011;501;48.214;11.350;2022-07-05T07:50:01;7.73;;;3.03;;
1024;SDS011;501;48.214;11.350;2022-07-05T07:52:28;3.43;;;3.10;;
1024;SDS011;501;48.214;11.350;2022-07-05T07:54:55;4.70;;;2.50;;
1024;SDS011;501;48.214;11.350;2022-07-05T07:57:21;3.27;;;2.80;;
1024;SDS011;501;48.214;11.350;2022-07-05T07:59:47;3.50;;;2.73;;
1024;SDS011;501;48.214;11.350;2022-07-05T08:02:13;3.40;;;2.53;;
1024;SDS011;501;48.214;11.350;2022-07-05T08:04:40;3.97;;;2.43;;
1024;SDS011;501;48.214;11.350;2022-07-05T08:07:06;4.70;;;2.50;;
1024;SDS011;501;48.214;11.350;2022-07-05T08:09:32;8.10;;;2.70;;
1024;SDS011;501;48.214;11.350;2022-07-05T08:11:57;2.90;;;2.70;;
1024;SDS011;501;48.214;11.350;2022-07-05T08:14:23;4.13;;;3.07;;
1024;SDS011;501;48.214;11.350;2022-07-05T08:16:49;2.97;;;2.67;;
1024;SDS011;501;48.214;11.350;2022-07-05T08:19:15;2.83;;;2.47;;
1024;SDS011;501;48.214;11.350;2022-07-05T08:22:00;3.10;;;2.40;;
1024;SDS011;501;48.214;11.350;2022-07-05T08:24:26;3.03;;;2.67;;
1024;SDS011;501;48.214;11.350;2022-07-05T08:26:52;5.47;;;2.80;;
1024;SDS011;501;48.214;11.350;2022-07-05T08:32:07;3.80;;;2.87;;
1024;SDS011;501;48.214;11.350;2022-07-05T08:34:34;3.13;;;2.70;;
1024;SDS011;501;48.214;11.350;2022-07-05T08:36:59;2.70;;;2.50;;
1024;SDS011;501;48.214;11.350;2022-07-05T08:39:25;2.90;;;2.70;;
1024;SDS011;501;48.214;11.350;2022-07-05T08:41:51;2.90;;;2.60;;
1024;SDS011;501;48.214;11.350;2022-07-05T08:44:18;2.93;;;2.50;;
1024;SDS011;501;48.214;11.350;2022-07-05T08:46:44;2.30;;;2.03;;
1024;SDS011;501;48.214;11.350;2022-07-05T08:49:11;2.47;;;2.20;;
1024;SDS011;501;48.214;11.350;2022-07-05T08:51:40;2.10;;;1.83;;
1024;SDS011;501;48.214;11.350;2022-07-05T08:54:10;4.50;;;2.43;;
1024;SDS011;501;48.214;11.350;2022-07-05T08:56:37;3.37;;;2.50;;
1024;SDS011;501;48.214;11.350;2022-07-05T08:59:06;2.40;;;2.20;;
1024;SDS011;501;48.214;11.350;2022-07-05T09:01:31;2.80;;;2.23;;
1024;SDS011;501;48.214;11.350;2022-07-05T09:04:00;2.00;;;1.90;;
1024;SDS011;501;48.214;11.350;2022-07-05T09:06:29;7.00;;;2.30;;
1024;SDS011;501;48.214;11.350;2022-07-05T09:08:58;2.50;;;2.30;;
1024;SDS011;501;48.214;11.350;2022-07-05T09:11:25;2.40;;;2.20;;
1024;SDS011;501;48.214;11.350;2022-07-05T09:13:59;2.13;;;2.00;;
1024;SDS011;501;48.214;11.350;2022-07-05T09:16:26;5.10;;;2.90;;
1024;SDS011;501;48.214;11.350;2022-07-05T09:18:53;2.90;;;2.67;;
1024;SDS011;501;48.214;11.350;2022-07-05T09:21:24;2.47;;;1.90;;
1024;SDS011;501;48.214;11.350;2022-07-05T09:23:55;4.53;;;1.93;;
1024;SDS011;501;48.214;11.350;2022-07-05T09:26:27;2.30;;;2.10;;
1024;SDS011;501;48.214;11.350;2022-07-05T09:29:03;2.50;;;2.30;;
1024;SDS011;501;48.214;11.350;2022-07-05T09:31:34;1.83;;;1.73;;
1024;SDS011;501;48.214;11.350;2022-07-05T09:34:05;2.40;;;2.10;;
1024;SDS011;501;48.214;11.350;2022-07-05T09:42:10;3.10;;;2.10;;
1024;SDS011;501;48.214;11.350;2022-07-05T09:44:37;2.43;;;2.23;;
1024;SDS011;501;48.214;11.350;2022-07-05T09:47:14;2.47;;;2.27;;
1024;SDS011;501;48.214;11.350;2022-07-05T09:49:44;2.07;;;1.80;;
1024;SDS011;501;48.214;11.350;2022-07-05T09:52:28;2.50;;;2.30;;
1024;SDS011;501;48.214;11.350;2022-07-05T09:57:41;2.20;;;2.00;;
1024;SDS011;501;48.214;11.350;2022-07-05T10:00:11;3.67;;;2.13;;
1024;SDS011;501;48.214;11.350;2022-07-05T10:02:44;2.10;;;2.00;;
1024;SDS011;501;48.214;11.350;2022-07-05T10:05:16;1.90;;;1.80;;
1024;SDS011;501;48.214;11.350;2022-07-05T10:07:44;3.73;;;2.50;;
1024;SDS011;501;48.214;11.350;2022-07-05T10:10:13;2.30;;;2.10;;
1024;SDS011;501;48.214;11.350;2022-07-05T10:12:44;2.87;;;2.20;;
1024;SDS011;501;48.214;11.350;2022-07-05T10:15:12;2.50;;;2.30;;
1024;SDS011;501;48.214;11.350;2022-07-05T10:17:44;2.13;;;2.03;;
1024;SDS011;501;48.214;11.350;2022-07-05T10:20:12;5.03;;;2.40;;
1024;SDS011;501;48.214;11.350;2022-07-05T10:22:46;2.20;;;1.73;;
1024;SDS011;501;48.214;11.350;2022-07-05T10:25:13;2.50;;;2.30;;
1024;SDS011;501;48.214;11.350;2022-07-05T10:27:39;2.40;;;2.30;;
1024;SDS011;501;48.214;11.350;2022-07-05T10:30:06;2.83;;;2.40;;
1024;SDS011;501;48.214;11.350;2022-07-05T10:32:33;2.53;;;2.40;;
1024;SDS011;501;48.214;11.350;2022-07-05T10:35:01;2.03;;;1.93;;
1024;SDS011;501;48.214;11.350;2022-07-05T10:37:28;2.57;;;1.90;;
1024;SDS011;501;48.214;11.350;2022-07-05T10:39:56;2.13;;;1.90;;
1024;SDS011;501;48.214;11.350;2022-07-05T10:42:23;3.83;;;2.17;;
1024;SDS011;501;48.214;11.350;2022-07-05T10:44:51;3.83;;;2.43;;
1024;SDS011;501;48.214;11.350;2022-07-05T10:47:16;1.53;;;1.43;;
1024;SDS011;501;48.214;11.350;2022-07-05T10:49:47;1.70;;;1.53;;
1024;SDS011;501;48.214;11.350;2022-07-05T10:52:28;1.83;;;1.60;;
1024;SDS011;501;48.214;11.350;2022-07-05T11:00:42;3.27;;;2.07;;
1024;SDS011;501;48.214;11.350;2022-07-05T11:06:18;2.23;;;2.00;;
1024;SDS011;501;48.214;11.350;2022-07-05T11:13:58;1.93;;;1.70;;
1024;SDS011;501;48.214;11.350;2022-07-05T11:16:31;2.30;;;1.63;;
1024;SDS011;501;48.214;11.350;2022-07-05T11:19:04;1.70;;;1.60;;
1024;SDS011;501;48.214;11.350;2022-07-05T11:21:31;3.37;;;2.13;;
1024;SDS011;501;48.214;11.350;2022-07-05T11:26:50;3.80;;;1.63;;
1024;SDS011;501;48.214;11.350;2022-07-05T11:34:40;5.70;;;1.80;;
1024;SDS011;501;48.214;11.350;2022-07-05T11:39:39;2.10;;;1.90;;
1024;SDS011;501;48.214;11.350;2022-07-05T11:42:05;3.20;;;2.10;;
1024;SDS011;501;48.214;11.350;2022-07-05T11:44:33;2.47;;;2.10;;
1024;SDS011;501;48.214;11.350;2022-07-05T11:47:02;2.60;;;2.00;;
1024;SDS011;501;48.214;11.350;2022-07-05T11:49:28;2.17;;;1.97;;
1024;SDS011;501;48.214;11.350;2022-07-05T11:51:54;2.10;;;1.60;;
1024;SDS011;501;48.214;11.350;2022-07-05T11:54:24;2.70;;;2.03;;
1024;SDS011;501;48.214;11.350;2022-07-05T11:56:51;2.13;;;2.03;;
1024;SDS011;501;48.214;11.350;2022-07-05T11:59:20;1.50;;;1.40;;
1024;SDS011;501;48.214;11.350;2022-07-05T12:01:46;3.83;;;2.00;;
1024;SDS011;501;48.214;11.350;2022-07-05T12:04:25;1.70;;;1.43;;
1024;SDS011;501;48.214;11.350;2022-07-05T12:06:53;2.03;;;1.93;;
1024;SDS011;501;48.214;11.350;2022-07-05T12:09:24;2.83;;;1.53;;
1024;SDS011;501;48.214;11.350;2022-07-05T12:11:54;1.90;;;1.80;;
1024;SDS011;501;48.214;11.350;2022-07-05T12:14:49;2.83;;;1.70;;
1024;SDS011;501;48.214;11.350;2022-07-05T12:17:16;2.07;;;1.60;;
1024;SDS011;501;48.214;11.350;2022-07-05T12:19:44;5.57;;;1.87;;
1024;SDS011;501;48.214;11.350;2022-07-05T12:22:10;2.00;;;1.80;;
1024;SDS011;501;48.214;11.350;2022-07-05T12:24:36;1.83;;;1.70;;
1024;SDS011;501;48.214;11.350;2022-07-05T12:27:02;4.27;;;1.70;;
1024;SDS011;501;48.214;11.350;2022-07-05T12:29:29;1.60;;;1.50;;
1024;SDS011;501;48.214;11.350;2022-07-05T12:32:01;2.17;;;1.53;;
1024;SDS011;501;48.214;11.350;2022-07-05T12:34:33;3.53;;;1.87;;
1024;SDS011;501;48.214;11.350;2022-07-05T12:36:59;4.03;;;2.00;;
1024;SDS011;501;48.214;11.350;2022-07-05T12:39:25;1.87;;;1.77;;
1024;SDS011;501;48.214;11.350;2022-07-05T12:41:51;1.53;;;1.43;;
1024;SDS011;501;48.214;11.350;2022-07-05T12:44:20;3.53;;;1.50;;
1024;SDS011;501;48.214;11.350;2022-07-05T12:46:46;3.43;;;1.40;;
1024;SDS011;501;48.214;11.350;2022-07-05T12:49:16;2.07;;;1.40;;
1024;SDS011;501;48.214;11.350;2022-07-05T12:51:43;1.47;;;1.37;;
1024;SDS011;501;48.214;11.350;2022-07-05T12:54:20;1.53;;;1.43;;
1024;SDS011;501;48.214;11.350;2022-07-05T12:57:04;1.80;;;1.40;;
1024;SDS011;501;48.214;11.350;2022-07-05T13:02:36;2.47;;;1.50;;
1024;SDS011;501;48.214;11.350;2022-07-05T13:05:03;2.50;;;1.87;;
1024;SDS011;501;48.214;11.350;2022-07-05T13:07:30;3.10;;;1.40;;
1024;SDS011;501;48.214;11.350;2022-07-05T13:09:56;1.70;;;1.47;;
1024;SDS011;501;48.214;11.350;2022-07-05T13:12:38;1.93;;;1.40;;
1024;SDS011;501;48.214;11.350;2022-07-05T13:15:04;1.40;;;1.30;;
1024;SDS011;501;48.214;11.350;2022-07-05T13:17:30;1.43;;;1.37;;
1024;SDS011;501;48.214;11.350;2022-07-05T13:19:56;1.30;;;1.20;;
1024;SDS011;501;48.214;11.350;2022-07-05T13:22:22;1.40;;;1.30;;
1024;SDS011;501;48.214;11.350;2022-07-05T13:24:47;1.50;;;1.40;;
1024;SDS011;501;48.214;11.350;2022-07-05T13:27:13;2.30;;;1.63;;
1024;SDS011;501;48.214;11.350;2022-07-05T13:29:39;2.17;;;1.47;;
1024;SDS011;501;48.214;11.350;2022-07-05T13:32:05;1.20;;;1.20;;
1024;SDS011;501;48.214;11.350;2022-07-05T13:34:31;1.53;;;1.43;;
1024;SDS011;501;48.214;11.350;2022-07-05T13:36:57;2.80;;;1.90;;
1024;SDS011;501;48.214;11.350;2022-07-05T13:39:24;1.90;;;1.70;;
1024;SDS011;501;48.214;11.350;2022-07-05T13:41:51;1.50;;;1.40;;
1024;SDS011;501;48.214;11.350;2022-07-05T13:44:18;4.20;;;1.73;;
1024;SDS011;501;48.214;11.350;2022-07-05T13:46:45;3.07;;;1.50;;
1024;SDS011;501;48.214;11.350;2022-07-05T13:49:11;1.90;;;1.40;;
1024;SDS011;501;48.214;11.350;2022-07-05T13:51:37;1.87;;;1.63;;
1024;SDS011;501;48.214;11.350;2022-07-05T13:54:03;1.90;;;1.63;;
1024;SDS011;501;48.214;11.350;2022-07-05T13:56:29;3.23;;;1.50;;
1024;SDS011;501;48.214;11.350;2022-07-05T13:58:56;1.70;;;1.33;;
1024;SDS011;501;48.214;11.350;2022-07-05T14:01:23;1.60;;;1.50;;
1024;SDS011;501;48.214;11.350;2022-07-05T14:03:54;1.47;;;1.37;;
1024;SDS011;501;48.214;11.350;2022-07-05T14:06:21;2.20;;;1.27;;
1024;SDS011;501;48.214;11.350;2022-07-05T14:08:47;1.50;;;1.40;;
1024;SDS011;501;48.214;11.350;2022-07-05T14:11:13;1.70;;;1.47;;
1024;SDS011;501;48.214;11.350;2022-07-05T14:13:39;1.40;;;1.30;;
1024;SDS011;501;48.214;11.350;2022-07-05T14:16:08;2.00;;;1.90;;
1024;SDS011;501;48.214;11.350;2022-07-05T14:18:34;1.33;;;1.23;;
1024;SDS011;501;48.214;11.350;2022-07-05T14:21:00;1.50;;;1.40;;
1024;SDS011;501;48.214;11.350;2022-07-05T14:23:25;1.77;;;1.67;;
1024;SDS011;501;48.214;11.350;2022-07-05T14:25:51;1.67;;;1.57;;
1024;SDS011;501;48.214;11.350;2022-07-05T14:28:17;2.20;;;1.80;;
1024;SDS011;501;48.214;11.350;2022-07-05T14:30:43;2.40;;;1.87;;
1024;SDS011;501;48.214;11.350;2022-07-05T14:33:11;2.73;;;1.80;;
1024;SDS011;501;48.214;11.350;2022-07-05T14:35:38;1.40;;;1.40;;
1024;SDS011;501;48.214;11.350;2022-07-05T14:38:04;2.00;;;1.80;;
1024;SDS011;501;48.214;11.350;2022-07-05T14:40:30;2.50;;;1.60;;
1024;SDS011;501;48.214;11.350;2022-07-05T14:42:57;1.70;;;1.60;;
1024;SDS011;501;48.214;11.350;2022-07-05T14:45:23;1.93;;;1.83;;
1024;SDS011;501;48.214;11.350;2022-07-05T14:47:50;1.60;;;1.50;;
1024;SDS011;501;48.214;11.350;2022-07-05T14:50:16;1.90;;;1.80;;
1024;SDS011;501;48.214;11.350;2022-07-05T14:52:42;2.13;;;1.90;;
1024;SDS011;501;48.214;11.350;2022-07-05T14:55:08;3.33;;;2.07;;
1024;SDS011;501;48.214;11.350;2022-07-05T14:57:37;1.10;;;1.10;;
1024;SDS011;501;48.214;11.350;2022-07-05T15:00:10;2.50;;;1.40;;
1024;SDS011;501;48.214;11.350;2022-07-05T15:02:45;1.50;;;1.40;;
1024;SDS011;501;48.214;11.350;2022-07-05T15:05:11;2.10;;;1.50;;
1024;SDS011;501;48.214;11.350;2022-07-05T15:07:37;1.60;;;1.50;;
1024;SDS011;501;48.214;11.350;2022-07-05T15:10:05;1.90;;;1.80;;
1024;SDS011;501;48.214;11.350;2022-07-05T15:12:34;1.60;;;1.50;;
1024;SDS011;501;48.214;11.350;2022-07-05T15:15:00;2.00;;;1.80;;
1024;SDS011;501;48.214;11.350;2022-07-05T15:17:26;2.07;;;1.87;;
1024;SDS011;501;48.214;11.350;2022-07-05T15:19:52;3.33;;;1.90;;
1024;SDS011;501;48.214;11.350;2022-07-05T15:22:20;1.97;;;1.87;;
1024;SDS011;501;48.214;11.350;2022-07-05T15:24:46;2.17;;;2.07;;
1024;SDS011;501;48.214;11.350;2022-07-05T15:27:12;1.80;;;1.70;;
1024;SDS011;501;48.214;11.350;2022-07-05T15:29:37;2.20;;;2.00;;
1024;SDS011;501;48.214;11.350;2022-07-05T15:32:07;2.20;;;2.00;;
1024;SDS011;501;48.214;11.350;2022-07-05T15:34:32;6.20;;;1.87;;
1024;SDS011;501;48.214;11.350;2022-07-05T15:36:58;2.00;;;1.80;;
1024;SDS011;501;48.214;11.350;2022-07-05T15:39:24;2.67;;;2.10;;
1024;SDS011;501;48.214;11.350;2022-07-05T15:41:52;2.80;;;1.90;;
1024;SDS011;501;48.214;11.350;2022-07-05T15:44:17;2.50;;;1.60;;
1024;SDS011;501;48.214;11.350;2022-07-05T15:46:43;4.40;;;2.00;;
1024;SDS011;501;48.214;11.350;2022-07-05T15:49:27;2.13;;;1.70;;
1024;SDS011;501;48.214;11.350;2022-07-05T15:51:54;4.03;;;1.80;;
1024;SDS011;501;48.214;11.350;2022-07-05T15:54:20;2.23;;;1.97;;